Time;durP1;ratioP1;P1;durP2;ratioP2;P2;SDS_P1;SDS_P2;PMS_P1;PMS_P2;Temp;Humidity;BMP_temperature;BMP_pressure;BME280_temperature;BME280_humidity;BME280_pressure;Samples;Min_cycle;Max_cycle;Signal;HPM_P1;HPM_P2
2020/12/29 00:00:49;;;;;;;28.35;15.32;;;3.20;84.80;;;;;;5035378;28;20039;-63
2020/12/29 00:03:16;;;;;;;23.15;13.02;;;3.20;84.70;;;;;;5052570;28;20022;-63
2020/12/29 00:05:42;;;;;;;28.65;15.23;;;3.20;84.60;;;;;;5050637;28;20030;-64
2020/12/29 00:08:07;;;;;;;25.33;15.45;;;3.20;84.40;;;;;;5049748;28;20017;-64
2020/12/29 00:10:33;;;;;;;25.10;15.10;;;3.20;84.30;;;;;;5042953;28;20080;-64
2020/12/29 00:12:59;;;;;;;26.95;14.98;;;3.20;84.30;;;;;;5048348;28;20109;-64
2020/12/29 00:15:26;;;;;;;24.15;14.15;;;3.20;84.20;;;;;;5048379;28;20435;-64
2020/12/29 00:17:51;;;;;;;23.58;13.77;;;3.10;84.10;;;;;;5051842;28;20469;-64
2020/12/29 00:20:17;;;;;;;22.90;13.65;;;3.10;84.20;;;;;;5053394;28;20063;-66
2020/12/29 00:22:43;;;;;;;22.05;12.55;;;3.00;84.50;;;;;;5046423;28;20055;-64
2020/12/29 00:25:09;;;;;;;20.20;12.38;;;3.10;84.80;;;;;;5063144;28;20022;-64
2020/12/29 00:27:35;;;;;;;24.08;13.25;;;3.10;84.50;;;;;;5051557;28;20418;-64
2020/12/29 00:30:00;;;;;;;23.67;13.07;;;3.10;84.40;;;;;;5047122;28;20098;-63
2020/12/29 00:32:26;;;;;;;20.33;13.18;;;3.10;85.20;;;;;;5041564;28;20497;-64
2020/12/29 00:34:52;;;;;;;29.65;15.93;;;3.20;84.80;;;;;;5031284;28;20097;-64
2020/12/29 00:37:17;;;;;;;27.10;15.98;;;3.20;84.40;;;;;;5047422;28;20180;-64
2020/12/29 00:39:43;;;;;;;26.17;15.52;;;3.10;83.90;;;;;;5038153;28;20056;-64
2020/12/29 00:42:10;;;;;;;25.23;15.38;;;2.90;84.00;;;;;;5031800;28;20026;-64
2020/12/29 00:44:35;;;;;;;24.83;14.50;;;2.90;84.20;;;;;;5021701;28;20030;-64
2020/12/29 00:47:01;;;;;;;24.10;14.20;;;2.80;84.50;;;;;;5025111;28;20021;-64
2020/12/29 00:49:27;;;;;;;26.35;15.90;;;2.70;84.90;;;;;;5031673;28;20033;-64
2020/12/29 00:51:53;;;;;;;27.52;14.85;;;2.70;85.70;;;;;;5038085;28;20079;-64
2020/12/29 00:54:20;;;;;;;30.85;16.63;;;2.60;85.20;;;;;;5026006;28;20092;-64
2020/12/29 00:56:45;;;;;;;30.95;16.45;;;2.60;85.40;;;;;;5027350;28;20429;-64
2020/12/29 00:59:12;;;;;;;29.23;16.45;;;2.60;85.60;;;;;;5037094;28;20068;-64
2020/12/29 01:01:37;;;;;;;28.38;16.20;;;2.50;85.80;;;;;;5027095;28;20025;-64
2020/12/29 01:04:03;;;;;;;29.23;17.20;;;2.50;85.90;;;;;;5025651;28;20108;-64
2020/12/29 01:06:29;;;;;;;31.73;16.95;;;2.50;86.10;;;;;;5014880;28;20079;-64
2020/12/29 01:08:55;;;;;;;25.20;13.63;;;2.40;86.20;;;;;;5014311;28;20029;-64
2020/12/29 01:11:21;;;;;;;28.38;15.85;;;2.40;86.30;;;;;;5032675;28;20446;-64
2020/12/29 01:13:47;;;;;;;28.08;16.30;;;2.40;86.50;;;;;;5026854;28;20048;-64
2020/12/29 01:16:13;;;;;;;27.58;16.85;;;2.40;86.60;;;;;;5034822;28;20469;-64
2020/12/29 01:18:39;;;;;;;29.00;14.90;;;2.40;86.60;;;;;;5040768;28;20077;-64
2020/12/29 01:21:08;;;;;;;30.65;15.98;;;2.40;86.70;;;;;;5028172;28;20116;-64
2020/12/29 01:23:34;;;;;;;33.20;15.45;;;2.40;86.70;;;;;;5030124;28;20037;-64
2020/12/29 01:26:00;;;;;;;31.38;15.98;;;2.30;86.90;;;;;;5036107;28;20037;-64
2020/12/29 01:28:26;;;;;;;24.52;13.68;;;2.30;87.00;;;;;;5036287;28;20109;-64
2020/12/29 01:30:51;;;;;;;23.83;12.93;;;2.40;87.30;;;;;;5055766;28;20500;-64
2020/12/29 01:33:17;;;;;;;26.45;14.63;;;2.40;87.40;;;;;;5053935;28;20028;-64
2020/12/29 01:35:43;;;;;;;28.05;15.32;;;2.50;87.40;;;;;;5067721;28;20092;-64
2020/12/29 01:38:09;;;;;;;30.42;15.50;;;2.50;87.10;;;;;;5042533;28;20048;-64
2020/12/29 01:40:35;;;;;;;25.45;14.05;;;2.50;86.90;;;;;;5045103;28;20102;-64
2020/12/29 01:43:02;;;;;;;26.13;13.73;;;2.50;87.00;;;;;;5053140;28;20035;-64
2020/12/29 01:45:27;;;;;;;24.88;13.80;;;2.60;87.20;;;;;;5053256;28;20028;-64
2020/12/29 01:47:54;;;;;;;22.38;13.23;;;2.70;87.20;;;;;;5042097;28;20022;-64
2020/12/29 01:50:22;;;;;;;30.13;14.60;;;2.70;86.90;;;;;;5052131;28;20075;-64
2020/12/29 01:52:58;;;;;;;28.70;14.07;;;2.80;86.60;;;;;;5047426;28;20025;-64
2020/12/29 01:55:25;;;;;;;23.60;12.45;;;2.80;86.60;;;;;;5054917;28;20040;-64
2020/12/29 01:57:52;;;;;;;30.55;15.00;;;2.80;86.60;;;;;;5048987;28;20488;-64
2020/12/29 02:00:18;;;;;;;27.38;13.85;;;2.80;86.50;;;;;;5063920;28;20028;-64
2020/12/29 02:02:45;;;;;;;26.15;15.70;;;2.90;86.30;;;;;;5053577;28;20029;-64
2020/12/29 02:05:11;;;;;;;27.60;14.95;;;2.80;86.10;;;;;;5053156;28;20106;-64
2020/12/29 02:07:37;;;;;;;27.17;15.05;;;2.80;86.00;;;;;;5059972;28;20071;-64
2020/12/29 02:10:04;;;;;;;26.50;14.30;;;2.80;85.90;;;;;;5050890;28;20052;-64
2020/12/29 02:12:35;;;;;;;24.05;14.23;;;2.80;86.30;;;;;;5054567;28;20474;-64
2020/12/29 02:15:03;;;;;;;26.30;14.33;;;2.80;86.40;;;;;;5047756;28;20098;-64
2020/12/29 02:17:29;;;;;;;23.35;13.23;;;2.90;86.50;;;;;;5056391;28;20022;-64
2020/12/29 02:19:55;;;;;;;26.65;14.00;;;2.90;86.60;;;;;;5050528;28;20036;-64
2020/12/29 02:22:22;;;;;;;27.05;14.52;;;3.00;86.60;;;;;;5045219;28;20485;-64
2020/12/29 02:25:10;;;;;;;22.80;13.18;;;3.00;86.30;;;;;;5035431;28;20029;-64
2020/12/29 02:27:50;;;;;;;24.85;14.00;;;3.00;86.00;;;;;;5027699;28;20026;-64
2020/12/29 02:30:20;;;;;;;27.15;15.15;;;3.00;86.60;;;;;;5030201;28;20400;-64
2020/12/29 02:32:46;;;;;;;27.02;15.40;;;3.00;85.90;;;;;;5033527;28;20334;-64
2020/12/29 02:35:15;;;;;;;27.65;15.70;;;3.00;85.90;;;;;;5033619;28;20028;-64
2020/12/29 02:37:41;;;;;;;25.15;15.85;;;3.00;85.90;;;;;;5033940;28;20034;-63
2020/12/29 02:40:07;;;;;;;26.80;14.65;;;3.00;85.90;;;;;;5031207;28;20022;-63
2020/12/29 02:42:32;;;;;;;27.38;15.02;;;2.90;85.70;;;;;;5033637;28;20037;-64
2020/12/29 02:44:58;;;;;;;23.20;13.73;;;2.90;85.80;;;;;;5032380;28;20480;-64
2020/12/29 02:47:24;;;;;;;24.95;12.90;;;2.90;86.00;;;;;;5034429;28;20029;-63
2020/12/29 02:49:50;;;;;;;26.10;14.70;;;2.90;86.00;;;;;;5030580;28;20404;-64
2020/12/29 02:52:15;;;;;;;29.70;16.33;;;2.90;85.90;;;;;;5031083;28;20099;-64
2020/12/29 02:54:41;;;;;;;28.10;14.80;;;2.90;85.90;;;;;;5032563;28;20112;-64
2020/12/29 02:57:07;;;;;;;22.70;13.40;;;2.90;85.80;;;;;;5030783;28;20032;-63
2020/12/29 02:59:32;;;;;;;23.70;14.13;;;2.80;86.10;;;;;;5034348;28;20525;-64
2020/12/29 03:01:58;;;;;;;21.65;12.93;;;2.90;86.30;;;;;;5030483;28;20355;-65
2020/12/29 03:04:25;;;;;;;23.90;12.57;;;2.90;86.30;;;;;;5032725;28;20477;-64
2020/12/29 03:06:51;;;;;;;19.55;10.73;;;2.90;86.50;;;;;;5029951;28;20373;-64
2020/12/29 03:09:17;;;;;;;24.42;13.68;;;3.00;86.60;;;;;;5030622;28;20025;-64
2020/12/29 03:11:44;;;;;;;23.20;12.70;;;3.00;86.60;;;;;;5031801;28;20033;-64
2020/12/29 03:14:10;;;;;;;22.90;12.18;;;3.00;86.20;;;;;;5040412;28;20109;-64
2020/12/29 03:16:37;;;;;;;21.38;12.73;;;3.10;86.40;;;;;;5027543;28;20033;-64
2020/12/29 03:19:03;;;;;;;24.80;14.63;;;3.10;86.20;;;;;;5028662;28;20038;-64
2020/12/29 03:21:29;;;;;;;26.75;14.35;;;3.10;86.00;;;;;;5031459;28;20022;-64
2020/12/29 03:23:55;;;;;;;23.25;12.98;;;3.00;85.80;;;;;;5031562;28;20052;-64
2020/12/29 03:26:21;;;;;;;22.48;12.88;;;2.90;85.90;;;;;;5026386;28;20021;-64
2020/12/29 03:28:47;;;;;;;25.08;13.82;;;2.80;86.10;;;;;;5028236;28;20589;-64
2020/12/29 03:31:13;;;;;;;26.27;13.90;;;2.80;86.40;;;;;;5042984;28;20120;-64
2020/12/29 03:33:39;;;;;;;21.17;11.63;;;2.80;86.60;;;;;;5051299;28;20066;-64
2020/12/29 03:36:05;;;;;;;26.63;14.27;;;2.70;86.60;;;;;;5049885;28;20048;-64
2020/12/29 03:38:31;;;;;;;22.42;12.55;;;2.70;87.00;;;;;;5041254;28;20021;-64
2020/12/29 03:40:57;;;;;;;23.92;12.70;;;2.70;87.00;;;;;;5023022;28;20029;-64
2020/12/29 03:43:23;;;;;;;19.42;12.07;;;2.70;87.20;;;;;;5048578;28;20028;-64
2020/12/29 03:45:50;;;;;;;21.63;11.90;;;2.70;87.40;;;;;;5046776;28;20033;-64
2020/12/29 03:48:18;;;;;;;20.80;10.52;;;2.70;87.40;;;;;;5044327;28;20025;-64
2020/12/29 03:50:44;;;;;;;19.85;11.70;;;2.70;87.50;;;;;;5051684;28;20060;-64
2020/12/29 03:53:09;;;;;;;21.33;11.05;;;2.80;87.80;;;;;;5053391;28;20029;-64
2020/12/29 03:55:36;;;;;;;21.73;11.40;;;2.80;87.60;;;;;;5046348;28;20025;-64
2020/12/29 03:58:04;;;;;;;20.55;10.77;;;2.90;87.80;;;;;;5044592;28;20033;-64
2020/12/29 04:00:30;;;;;;;24.27;11.43;;;3.00;87.70;;;;;;5053671;28;20025;-64
2020/12/29 04:02:56;;;;;;;20.45;12.15;;;3.00;87.40;;;;;;5041365;28;20029;-64
2020/12/29 04:05:22;;;;;;;18.60;11.52;;;3.00;87.30;;;;;;5041295;28;20029;-64
2020/12/29 04:07:48;;;;;;;19.83;12.02;;;3.00;87.10;;;;;;5038273;28;20017;-64
2020/12/29 04:10:14;;;;;;;19.90;11.55;;;3.10;87.00;;;;;;5045973;28;20029;-64
2020/12/29 04:12:40;;;;;;;20.85;11.32;;;3.10;87.00;;;;;;5058782;28;20542;-64
2020/12/29 04:15:07;;;;;;;18.25;10.43;;;3.10;86.90;;;;;;5052971;28;20033;-64
2020/12/29 04:17:39;;;;;;;19.63;10.75;;;3.10;86.90;;;;;;5035871;28;20036;-64
2020/12/29 04:20:07;;;;;;;17.25;10.70;;;3.10;87.00;;;;;;5047588;28;20064;-64
2020/12/29 04:22:34;;;;;;;18.73;9.80;;;3.10;86.90;;;;;;5040375;28;20047;-64
2020/12/29 04:25:01;;;;;;;18.63;11.20;;;3.10;87.10;;;;;;5053706;28;20104;-64
2020/12/29 04:27:27;;;;;;;19.40;11.07;;;3.10;87.20;;;;;;5042034;28;20078;-64
2020/12/29 04:29:53;;;;;;;20.75;12.35;;;3.10;87.10;;;;;;5051443;28;20048;-64
2020/12/29 04:32:19;;;;;;;15.55;9.90;;;3.20;87.10;;;;;;5046506;28;20064;-64
2020/12/29 04:34:45;;;;;;;19.23;10.30;;;3.20;86.90;;;;;;5051664;28;20391;-64
2020/12/29 04:37:12;;;;;;;19.58;10.43;;;3.20;86.90;;;;;;5051457;28;20040;-64
2020/12/29 04:39:37;;;;;;;20.45;11.90;;;3.20;86.80;;;;;;5053739;28;20050;-64
2020/12/29 04:42:09;;;;;;;22.27;12.13;;;3.20;87.50;;;;;;5051420;28;20027;-64
2020/12/29 04:44:36;;;;;;;20.38;10.88;;;3.20;86.80;;;;;;5050228;28;20498;-64
2020/12/29 04:47:02;;;;;;;18.80;11.63;;;3.10;86.60;;;;;;5051316;28;20029;-64
2020/12/29 04:49:29;;;;;;;21.40;11.15;;;3.10;86.70;;;;;;5051329;28;20021;-64
2020/12/29 04:51:58;;;;;;;20.45;11.98;;;3.10;86.90;;;;;;5041633;28;20044;-64
2020/12/29 04:54:32;;;;;;;18.15;10.05;;;3.10;86.80;;;;;;5047674;28;20034;-64
2020/12/29 04:56:57;;;;;;;19.67;11.30;;;3.10;86.90;;;;;;5061443;28;20028;-64
2020/12/29 04:59:23;;;;;;;19.58;11.00;;;3.00;86.90;;;;;;5044080;28;20393;-64
2020/12/29 05:01:49;;;;;;;18.13;10.68;;;3.00;87.00;;;;;;5038497;28;20174;-64
2020/12/29 05:04:16;;;;;;;18.63;10.55;;;3.00;87.10;;;;;;5046101;28;20033;-64
2020/12/29 05:06:42;;;;;;;17.95;11.18;;;3.00;87.20;;;;;;5055603;28;20018;-64
2020/12/29 05:09:08;;;;;;;19.27;11.32;;;3.00;87.20;;;;;;5052474;28;20028;-64
2020/12/29 05:11:36;;;;;;;18.13;10.73;;;3.00;87.40;;;;;;5042942;28;20025;-64
2020/12/29 05:14:03;;;;;;;19.23;10.55;;;3.00;87.50;;;;;;5049558;28;20023;-64
2020/12/29 05:16:28;;;;;;;19.75;11.48;;;3.10;87.60;;;;;;5047934;28;20029;-65
2020/12/29 05:18:56;;;;;;;20.70;10.90;;;3.10;87.60;;;;;;5050536;28;20111;-64
2020/12/29 05:21:25;;;;;;;18.73;10.50;;;3.10;87.60;;;;;;5047602;28;20038;-64
2020/12/29 05:23:51;;;;;;;17.60;10.45;;;3.20;87.80;;;;;;5045943;28;20079;-64
2020/12/29 05:26:18;;;;;;;23.67;12.38;;;3.20;88.00;;;;;;5041340;28;20025;-64
2020/12/29 05:28:46;;;;;;;19.77;11.38;;;3.30;88.00;;;;;;5045152;28;20071;-64
2020/12/29 05:31:12;;;;;;;24.05;12.77;;;3.40;87.80;;;;;;5059275;28;20061;-64
2020/12/29 05:33:39;;;;;;;24.67;12.77;;;3.40;87.30;;;;;;5055304;28;20497;-64
2020/12/29 05:36:04;;;;;;;22.33;13.50;;;3.40;86.90;;;;;;5040564;28;20036;-64
2020/12/29 05:38:31;;;;;;;24.02;12.75;;;3.40;86.80;;;;;;5054133;28;20021;-64
2020/12/29 05:40:59;;;;;;;24.48;13.52;;;3.30;86.40;;;;;;5053575;28;20440;-64
2020/12/29 05:43:32;;;;;;;26.10;14.07;;;3.20;86.50;;;;;;5052884;28;20079;-65
2020/12/29 05:46:07;;;;;;;25.63;14.02;;;3.10;86.60;;;;;;5052745;28;20029;-65
2020/12/29 05:48:33;;;;;;;22.10;12.90;;;3.00;86.90;;;;;;5047133;28;20072;-65
2020/12/29 05:51:13;;;;;;;21.55;13.05;;;3.00;87.10;;;;;;5046731;28;20033;-65
2020/12/29 05:53:39;;;;;;;20.95;12.02;;;2.90;87.30;;;;;;5049078;28;20035;-65
2020/12/29 05:56:07;;;;;;;23.65;13.02;;;2.90;87.50;;;;;;5049581;28;20032;-65
2020/12/29 05:58:35;;;;;;;19.50;11.82;;;2.90;87.70;;;;;;5046961;28;20021;-65
2020/12/29 06:01:01;;;;;;;21.25;10.75;;;2.80;87.80;;;;;;5051904;28;20036;-65
2020/12/29 06:03:28;;;;;;;18.00;11.40;;;2.80;87.80;;;;;;5049733;28;20017;-65
2020/12/29 06:06:03;;;;;;;19.40;11.00;;;2.80;88.00;;;;;;5049446;28;20030;-64
2020/12/29 06:08:30;;;;;;;20.23;11.48;;;2.80;88.10;;;;;;5048459;28;20108;-65
2020/12/29 06:11:04;;;;;;;20.80;11.73;;;2.80;88.80;;;;;;5047302;28;20036;-65
2020/12/29 06:13:37;;;;;;;18.38;10.80;;;2.90;88.90;;;;;;5052734;28;20106;-65
2020/12/29 06:16:03;;;;;;;18.77;10.35;;;2.90;88.40;;;;;;5045781;28;20021;-65
2020/12/29 06:18:36;;;;;;;20.40;11.98;;;2.90;88.50;;;;;;5046905;28;20029;-65
2020/12/29 06:21:05;;;;;;;22.08;12.20;;;3.00;88.40;;;;;;5036909;28;20120;-65
2020/12/29 06:23:41;;;;;;;23.70;13.50;;;3.00;88.10;;;;;;5052054;28;20028;-65
2020/12/29 06:26:09;;;;;;;20.35;11.13;;;3.00;88.10;;;;;;5035596;28;20060;-65
2020/12/29 06:28:47;;;;;;;18.77;10.75;;;3.00;87.90;;;;;;5035025;28;20026;-65
2020/12/29 06:31:21;;;;;;;15.80;9.43;;;2.90;88.00;;;;;;5047862;28;20029;-63
2020/12/29 06:33:48;;;;;;;21.08;10.75;;;3.00;88.40;;;;;;5048406;28;20036;-62
2020/12/29 06:36:16;;;;;;;24.27;13.68;;;3.00;88.40;;;;;;5052552;28;20439;-62
2020/12/29 06:38:45;;;;;;;22.23;12.20;;;3.00;88.30;;;;;;5050334;28;20504;-62
2020/12/29 06:41:14;;;;;;;21.30;12.50;;;3.00;88.10;;;;;;5049369;28;20358;-63
2020/12/29 06:43:40;;;;;;;20.70;11.65;;;2.90;88.20;;;;;;5041990;28;20027;-63
2020/12/29 06:46:12;;;;;;;17.55;10.85;;;2.80;88.20;;;;;;5044553;28;20457;-63
2020/12/29 06:48:38;;;;;;;20.88;10.88;;;2.80;88.50;;;;;;5043288;28;20347;-63
2020/12/29 06:51:11;;;;;;;25.80;13.57;;;2.80;88.40;;;;;;5041708;28;20037;-63
2020/12/29 06:53:42;;;;;;;24.27;14.05;;;2.80;88.70;;;;;;5042391;28;20025;-66
2020/12/29 06:56:15;;;;;;;25.52;13.57;;;2.70;88.70;;;;;;5045147;28;20037;-66
2020/12/29 06:58:40;;;;;;;22.60;13.25;;;2.70;88.90;;;;;;5046220;28;20036;-66
2020/12/29 07:01:26;;;;;;;24.58;13.35;;;2.60;89.30;;;;;;5042864;28;20029;-66
2020/12/29 07:04:19;;;;;;;20.63;12.10;;;2.50;89.40;;;;;;5039657;28;20155;-66
2020/12/29 07:06:45;;;;;;;25.38;14.38;;;2.50;89.70;;;;;;5043361;28;20369;-56
2020/12/29 07:09:14;;;;;;;26.90;14.18;;;2.50;90.00;;;;;;5052375;28;20027;-56
2020/12/29 07:12:04;;;;;;;23.98;13.15;;;2.50;90.00;;;;;;5043106;28;20024;-57
2020/12/29 07:14:34;;;;;;;18.20;11.15;;;2.50;90.00;;;;;;5053658;28;20029;-58
2020/12/29 07:17:00;;;;;;;19.90;11.50;;;2.50;90.10;;;;;;5052521;28;20121;-57
2020/12/29 07:19:29;;;;;;;25.92;12.48;;;2.50;90.20;;;;;;5049782;28;20033;-58
2020/12/29 07:21:55;;;;;;;24.83;13.38;;;2.50;90.20;;;;;;5038130;28;20033;-56
2020/12/29 07:24:21;;;;;;;20.73;11.82;;;2.60;90.20;;;;;;5049921;28;20025;-56
2020/12/29 07:26:48;;;;;;;24.73;13.40;;;2.60;90.20;;;;;;5049379;28;20036;-53
2020/12/29 07:29:14;;;;;;;19.42;11.95;;;2.60;90.20;;;;;;5048081;28;20032;-57
2020/12/29 07:31:42;;;;;;;24.33;12.68;;;2.60;90.20;;;;;;5048579;28;20025;-53
2020/12/29 07:34:12;;;;;;;29.88;15.30;;;2.70;90.30;;;;;;5048333;28;20030;-57
2020/12/29 07:36:49;;;;;;;26.23;14.32;;;2.80;90.20;;;;;;5051102;28;20024;-58
2020/12/29 07:39:17;;;;;;;23.80;13.25;;;2.80;90.20;;;;;;5041065;28;20430;-56
2020/12/29 07:41:44;;;;;;;26.65;14.15;;;2.90;90.20;;;;;;5052546;28;20029;-57
2020/12/29 07:44:10;;;;;;;27.08;14.55;;;2.90;90.10;;;;;;5049428;28;20457;-57
2020/12/29 07:46:36;;;;;;;27.05;14.60;;;2.90;90.10;;;;;;5050151;28;20040;-56
2020/12/29 07:49:02;;;;;;;24.40;13.25;;;2.90;90.00;;;;;;5046408;28;20417;-56
2020/12/29 07:51:28;;;;;;;26.25;14.20;;;2.90;90.00;;;;;;5041230;28;20051;-57
2020/12/29 07:53:54;;;;;;;26.55;15.00;;;3.00;90.10;;;;;;5050165;28;20033;-56
2020/12/29 07:56:20;;;;;;;28.55;16.13;;;3.00;90.00;;;;;;5052473;28;20033;-56
2020/12/29 07:58:46;;;;;;;29.33;14.68;;;3.00;90.00;;;;;;5045902;28;20029;-56
2020/12/29 08:01:13;;;;;;;29.23;13.70;;;3.00;90.00;;;;;;5052707;28;20112;-57
2020/12/29 08:03:39;;;;;;;29.75;15.48;;;3.00;90.00;;;;;;5055286;28;20055;-55
2020/12/29 08:06:14;;;;;;;23.58;13.38;;;3.00;90.00;;;;;;5040370;28;20227;-56
2020/12/29 08:08:41;;;;;;;28.65;13.80;;;3.00;90.00;;;;;;5046815;28;20104;-55
2020/12/29 08:11:10;;;;;;;26.42;13.90;;;2.90;89.90;;;;;;5047498;28;20033;-57
2020/12/29 08:13:36;;;;;;;30.38;16.60;;;3.00;90.00;;;;;;5045199;28;20061;-58
2020/12/29 08:16:02;;;;;;;32.80;17.48;;;3.00;90.10;;;;;;5050767;28;20037;-58
2020/12/29 08:18:28;;;;;;;25.75;14.32;;;3.00;90.10;;;;;;5052099;28;20393;-58
2020/12/29 08:20:58;;;;;;;32.50;17.02;;;3.00;90.00;;;;;;5047862;28;20121;-58
2020/12/29 08:23:30;;;;;;;25.52;14.57;;;3.00;90.10;;;;;;5049658;28;20033;-58
2020/12/29 08:25:56;;;;;;;;;;;3.00;90.10;;;;;;5049390;28;20021;-57
2020/12/29 08:28:37;;;;;;;28.17;14.48;;;2.90;90.20;;;;;;5046557;28;20027;-58
2020/12/29 08:31:06;;;;;;;32.73;16.63;;;3.00;90.10;;;;;;5031067;28;20102;-57
2020/12/29 08:33:33;;;;;;;35.33;16.85;;;3.00;90.20;;;;;;5028544;28;20032;-57
2020/12/29 08:36:01;;;;;;;28.05;15.73;;;3.00;90.20;;;;;;5029608;28;20021;-57
2020/12/29 08:38:29;;;;;;;33.22;15.98;;;3.00;90.20;;;;;;5031113;28;20482;-58
2020/12/29 08:41:11;;;;;;;28.42;15.23;;;3.00;90.10;;;;;;5031979;28;20037;-58
2020/12/29 08:43:43;;;;;;;27.75;15.25;;;3.10;90.20;;;;;;5029474;28;20018;-58
2020/12/29 08:46:12;;;;;;;35.60;16.33;;;3.10;90.20;;;;;;5026823;28;21306;-58
2020/12/29 08:48:42;;;;;;;28.60;15.07;;;3.10;90.10;;;;;;5023937;28;20025;-58
2020/12/29 08:51:25;;;;;;;31.00;16.08;;;3.10;90.10;;;;;;5031946;28;20548;-58
2020/12/29 08:53:51;;;;;;;27.70;14.23;;;3.20;90.10;;;;;;5030563;28;20124;-57
2020/12/29 08:56:26;;;;;;;32.38;15.95;;;3.20;90.20;;;;;;5030892;28;20030;-57
2020/12/29 08:58:53;;;;;;;27.10;15.15;;;3.20;90.30;;;;;;5031201;28;20426;-57
2020/12/29 09:01:40;;;;;;;33.40;16.88;;;3.20;90.30;;;;;;5021240;28;20084;-57
2020/12/29 09:04:25;;;;;;;29.52;15.88;;;3.30;90.20;;;;;;5023263;28;20090;-57
2020/12/29 09:07:12;;;;;;;28.23;15.98;;;3.30;90.20;;;;;;5021637;28;20053;-57
2020/12/29 09:09:50;;;;;;;28.77;14.82;;;3.30;90.00;;;;;;5024780;28;20121;-57
2020/12/29 09:12:18;;;;;;;30.42;14.35;;;3.30;90.10;;;;;;5023604;28;20064;-57
2020/12/29 09:14:52;;;;;;;26.17;14.20;;;3.30;90.10;;;;;;5028380;28;20037;-57
2020/12/29 09:17:19;;;;;;;28.52;15.98;;;3.30;90.10;;;;;;5021966;28;20209;-58
2020/12/29 09:20:09;;;;;;;27.42;14.70;;;3.40;90.10;;;;;;5025587;28;20877;-57
2020/12/29 09:22:51;;;;;;;29.80;14.75;;;3.40;90.10;;;;;;5027195;28;20437;-57
2020/12/29 09:25:29;;;;;;;36.83;16.13;;;3.30;90.10;;;;;;5029118;28;20032;-58
2020/12/29 09:28:17;;;;;;;33.28;16.38;;;3.30;90.10;;;;;;5035048;28;20034;-57
2020/12/29 09:30:47;;;;;;;34.45;14.70;;;3.40;90.20;;;;;;5044845;28;20172;-58
2020/12/29 09:33:20;;;;;;;25.97;14.47;;;3.30;90.20;;;;;;5050621;28;20033;-56
2020/12/29 09:35:48;;;;;;;34.05;17.25;;;3.40;90.30;;;;;;5045264;28;20273;-57
2020/12/29 09:38:14;;;;;;;32.05;16.23;;;3.40;90.30;;;;;;5049961;28;20416;-58
2020/12/29 09:40:40;;;;;;;24.02;12.18;;;3.40;90.20;;;;;;5049632;28;20040;-57
2020/12/29 09:43:06;;;;;;;24.52;12.57;;;3.40;90.30;;;;;;5050412;28;20033;-57
2020/12/29 09:45:31;;;;;;;25.70;14.23;;;3.50;90.50;;;;;;5048051;28;20109;-56
2020/12/29 09:47:57;;;;;;;28.52;13.02;;;3.60;90.50;;;;;;5049172;28;20021;-56
2020/12/29 09:50:23;;;;;;;34.65;16.25;;;3.60;90.40;;;;;;5045863;28;20402;-54
2020/12/29 09:52:48;;;;;;;37.20;17.38;;;3.70;90.20;;;;;;5047029;28;20029;-56
2020/12/29 09:55:14;;;;;;;24.92;13.20;;;3.70;90.20;;;;;;5050041;28;20041;-58
2020/12/29 09:57:40;;;;;;;27.25;13.93;;;3.70;90.20;;;;;;5050478;28;20039;-55
2020/12/29 10:00:07;;;;;;;27.20;14.68;;;3.80;90.30;;;;;;5050982;28;20036;-57
2020/12/29 10:02:33;;;;;;;26.08;14.40;;;3.80;90.30;;;;;;5046720;28;20079;-57
2020/12/29 10:04:59;;;;;;;28.88;15.65;;;3.90;90.20;;;;;;5047295;28;20021;-55
2020/12/29 10:07:25;;;;;;;28.00;14.18;;;3.90;90.00;;;;;;5047874;28;20079;-57
2020/12/29 10:09:51;;;;;;;28.88;14.18;;;3.80;89.80;;;;;;5051021;28;20031;-58
2020/12/29 10:12:17;;;;;;;31.08;15.65;;;3.80;89.80;;;;;;5048627;28;20048;-58
2020/12/29 10:14:43;;;;;;;30.25;16.30;;;3.80;89.80;;;;;;5048620;28;20159;-55
2020/12/29 10:17:09;;;;;;;24.85;13.55;;;3.70;89.90;;;;;;5047162;28;20067;-55
2020/12/29 10:19:34;;;;;;;27.80;14.50;;;3.70;90.00;;;;;;5048816;28;20028;-56
2020/12/29 10:22:00;;;;;;;30.15;14.90;;;3.70;90.20;;;;;;5045100;28;20036;-55
2020/12/29 10:24:27;;;;;;;25.88;15.13;;;3.70;90.20;;;;;;5046291;28;20028;-56
2020/12/29 10:26:53;;;;;;;28.02;14.95;;;3.80;90.20;;;;;;5042394;28;20074;-58
2020/12/29 10:29:19;;;;;;;26.45;14.00;;;3.80;90.20;;;;;;5050751;28;20170;-58
2020/12/29 10:31:46;;;;;;;28.13;13.70;;;3.80;90.30;;;;;;5047666;28;20028;-60
2020/12/29 10:34:16;;;;;;;23.17;13.15;;;3.90;90.40;;;;;;5044231;28;20036;-58
2020/12/29 10:36:43;;;;;;;27.70;14.13;;;3.90;90.30;;;;;;5045531;28;20029;-58
2020/12/29 10:39:09;;;;;;;28.00;14.27;;;4.00;90.30;;;;;;5030260;28;20033;-58
2020/12/29 10:41:37;;;;;;;26.90;15.80;;;4.00;90.40;;;;;;5042132;28;20036;-58
2020/12/29 10:44:04;;;;;;;25.60;14.05;;;4.10;90.40;;;;;;5038933;28;20031;-57
2020/12/29 10:46:29;;;;;;;31.65;15.90;;;4.20;90.40;;;;;;5041288;28;20887;-57
2020/12/29 10:48:55;;;;;;;30.40;16.73;;;4.30;90.40;;;;;;5044187;28;20029;-57
2020/12/29 10:51:22;;;;;;;29.60;15.98;;;4.30;90.50;;;;;;5044052;28;20029;-57
2020/12/29 10:53:49;;;;;;;26.63;15.52;;;4.50;90.60;;;;;;5044772;28;20037;-58
2020/12/29 10:56:15;;;;;;;31.85;17.02;;;4.60;90.40;;;;;;5044403;28;20049;-58
2020/12/29 10:58:42;;;;;;;32.38;18.58;;;4.70;90.30;;;;;;5045190;28;20059;-58
2020/12/29 11:01:12;;;;;;;27.67;16.13;;;4.70;90.30;;;;;;5048435;28;20032;-58
2020/12/29 11:03:38;;;;;;;27.52;14.80;;;4.80;90.30;;;;;;5048445;28;20031;-58
2020/12/29 11:06:20;;;;;;;21.83;12.45;;;4.90;90.30;;;;;;5048462;28;20129;-58
2020/12/29 11:08:47;;;;;;;27.80;14.80;;;4.90;90.10;;;;;;5041719;28;20108;-58
2020/12/29 11:11:13;;;;;;;21.48;13.07;;;5.00;90.10;;;;;;5049092;28;20031;-57
2020/12/29 11:13:39;;;;;;;23.15;12.85;;;5.10;90.10;;;;;;5049313;28;20060;-58
2020/12/29 11:16:04;;;;;;;19.70;11.85;;;5.10;90.00;;;;;;5042969;28;20033;-57
2020/12/29 11:18:30;;;;;;;19.02;12.65;;;5.20;90.00;;;;;;5045677;28;20033;-58
2020/12/29 11:20:56;;;;;;;19.58;11.90;;;5.20;90.00;;;;;;5041867;28;20722;-57
2020/12/29 11:23:22;;;;;;;23.92;13.60;;;5.30;89.60;;;;;;5053720;28;20032;-57
2020/12/29 11:25:48;;;;;;;22.77;12.90;;;5.30;89.20;;;;;;5046768;28;20330;-58
2020/12/29 11:28:14;;;;;;;25.20;14.10;;;5.30;88.90;;;;;;5045302;28;20029;-57
2020/12/29 11:30:40;;;;;;;22.90;14.05;;;5.20;88.60;;;;;;5050109;28;20072;-57
2020/12/29 11:33:07;;;;;;;23.13;13.50;;;5.20;88.20;;;;;;5044351;28;20028;-58
2020/12/29 11:35:32;;;;;;;24.23;14.82;;;5.10;88.10;;;;;;5052222;28;20203;-56
2020/12/29 11:37:58;;;;;;;23.38;12.95;;;5.10;88.30;;;;;;5045099;28;20077;-57
2020/12/29 11:40:26;;;;;;;22.35;12.63;;;5.00;88.20;;;;;;5048382;28;20043;-57
2020/12/29 11:42:53;;;;;;;22.77;13.68;;;5.00;88.40;;;;;;5046183;28;20389;-56
2020/12/29 11:45:19;;;;;;;20.70;12.32;;;4.90;88.50;;;;;;5049759;28;20120;-57
2020/12/29 11:47:46;;;;;;;22.05;12.57;;;4.90;88.60;;;;;;5049054;28;20056;-57
2020/12/29 11:50:12;;;;;;;22.35;12.70;;;4.90;89.10;;;;;;5041295;28;20112;-58
2020/12/29 11:52:37;;;;;;;20.85;11.57;;;5.00;89.20;;;;;;5045922;28;20119;-56
2020/12/29 11:55:03;;;;;;;21.63;12.32;;;5.00;89.40;;;;;;5043374;28;20036;-57
2020/12/29 11:57:29;;;;;;;21.70;12.88;;;5.00;89.30;;;;;;5043127;28;20029;-58
2020/12/29 11:59:54;;;;;;;20.83;13.57;;;5.10;88.90;;;;;;5042481;28;20037;-57
2020/12/29 12:02:20;;;;;;;23.58;12.52;;;5.00;88.60;;;;;;5044784;28;20385;-56
2020/12/29 12:04:46;;;;;;;19.55;11.05;;;5.00;88.60;;;;;;5041181;28;20029;-55
2020/12/29 12:07:11;;;;;;;22.65;11.70;;;4.90;88.50;;;;;;5046893;28;20033;-57
2020/12/29 12:09:40;;;;;;;19.08;11.68;;;4.90;88.70;;;;;;5048510;28;20021;-58
2020/12/29 12:12:06;;;;;;;19.55;11.85;;;4.90;88.80;;;;;;5049286;28;20036;-56
2020/12/29 12:14:32;;;;;;;26.80;14.50;;;4.80;88.70;;;;;;5042491;28;20043;-57
2020/12/29 12:16:58;;;;;;;28.30;12.63;;;4.80;88.90;;;;;;5051525;28;20092;-57
2020/12/29 12:19:24;;;;;;;22.70;12.68;;;4.70;88.70;;;;;;5047874;28;20065;-55
2020/12/29 12:21:50;;;;;;;19.00;11.27;;;4.70;88.80;;;;;;5044776;28;20049;-57
2020/12/29 12:24:16;;;;;;;18.27;10.93;;;4.70;89.20;;;;;;5045596;28;20036;-56
2020/12/29 12:26:41;;;;;;;23.80;12.55;;;4.70;89.50;;;;;;5045938;28;20470;-56
2020/12/29 12:29:07;;;;;;;21.23;11.18;;;4.70;89.40;;;;;;5048122;28;20064;-55
2020/12/29 12:31:33;;;;;;;27.00;14.52;;;4.70;89.20;;;;;;5046350;28;20036;-56
2020/12/29 12:33:58;;;;;;;20.83;12.32;;;4.80;89.50;;;;;;5045399;28;20029;-54
2020/12/29 12:36:24;;;;;;;27.83;14.10;;;4.80;89.60;;;;;;5047445;28;20066;-59
2020/12/29 12:38:50;;;;;;;25.38;12.80;;;4.80;89.60;;;;;;5047261;28;20140;-56
2020/12/29 12:41:16;;;;;;;20.83;11.75;;;4.80;89.30;;;;;;5050997;28;20047;-57